createdAt,value
2023-05-09T00:00:05.357Z,17.10
2023-05-09T00:05:30.720Z,16.50
2023-05-09T00:10:36.329Z,19.70
2023-05-09T00:15:42.031Z,25.50
2023-05-09T00:20:47.627Z,22.60
2023-05-09T00:25:53.122Z,23.30
2023-05-09T00:30:58.513Z,22.80
2023-05-09T00:36:04.283Z,22.10
2023-05-09T00:41:09.850Z,21.90
2023-05-09T00:46:15.329Z,21.50
2023-05-09T00:51:21.889Z,21.60
2023-05-09T00:56:27.486Z,26.20
2023-05-09T01:01:32.925Z,25.80
2023-05-09T01:06:48.785Z,26.40
2023-05-09T01:12:11.979Z,25.40
2023-05-09T01:17:27.771Z,27.30
2023-05-09T01:22:36.439Z,24.90
2023-05-09T01:27:53.619Z,22.20
2023-05-09T01:33:05.250Z,21.70
2023-05-09T01:38:16.887Z,24.00
2023-05-09T01:43:25.834Z,24.00
2023-05-09T01:48:34.777Z,23.50
2023-05-09T01:53:42.385Z,24.20
2023-05-09T01:58:50.084Z,23.90
2023-05-09T02:03:56.167Z,21.30
2023-05-09T02:09:03.061Z,20.50
2023-05-09T02:14:08.706Z,21.00
2023-05-09T02:19:14.109Z,21.50
2023-05-09T02:24:19.648Z,21.20
2023-05-09T02:29:30.964Z,21.70
2023-05-09T02:34:37.841Z,22.30
2023-05-09T02:39:44.147Z,21.20
2023-05-09T02:44:49.582Z,23.40
2023-05-09T02:49:55.338Z,20.70
2023-05-09T02:55:00.861Z,19.50
2023-05-09T03:00:11.645Z,20.30
2023-05-09T03:05:18.323Z,21.90
2023-05-09T03:10:23.838Z,22.80
2023-05-09T03:15:29.559Z,22.70
2023-05-09T03:20:36.491Z,23.00
2023-05-09T03:25:42.411Z,20.60
2023-05-09T03:30:48.096Z,19.00
2023-05-09T03:35:54.662Z,19.50
2023-05-09T03:41:00.466Z,21.20
2023-05-09T03:46:06.529Z,21.10
2023-05-09T03:51:13.041Z,21.00
2023-05-09T03:56:19.979Z,20.70
2023-05-09T04:01:28.443Z,20.80
2023-05-09T04:06:35.811Z,18.00
2023-05-09T04:11:41.721Z,18.80
2023-05-09T04:16:49.484Z,20.10
2023-05-09T04:21:55.040Z,25.10
2023-05-09T04:27:01.135Z,21.20
2023-05-09T04:32:06.958Z,16.00
2023-05-09T04:37:13.295Z,15.20
2023-05-09T04:42:21.022Z,14.10
2023-05-09T04:47:26.634Z,12.60
2023-05-09T04:52:32.108Z,11.90
2023-05-09T04:57:37.486Z,11.80
2023-05-09T05:02:43.054Z,12.00
2023-05-09T05:07:48.672Z,11.70
2023-05-09T05:18:02.280Z,11.30
2023-05-09T05:23:13.420Z,10.70
2023-05-09T05:28:18.885Z,10.70
2023-05-09T05:33:30.732Z,10.50
2023-05-09T05:38:37.676Z,9.10
2023-05-09T05:43:43.345Z,9.20
2023-05-09T05:48:49.179Z,8.10
2023-05-09T05:54:06.329Z,8.10
2023-05-09T05:59:13.569Z,7.70
2023-05-09T06:04:19.799Z,6.50
2023-05-09T06:09:26.176Z,6.90
2023-05-09T06:14:31.618Z,6.20
2023-05-09T06:19:37.786Z,7.10
2023-05-09T06:24:43.432Z,6.40
2023-05-09T06:29:49.100Z,6.10
2023-05-09T06:34:54.659Z,4.80
2023-05-09T06:40:00.299Z,4.60
2023-05-09T06:45:07.048Z,3.60
2023-05-09T06:55:17.304Z,2.30
2023-05-09T07:00:23.912Z,1.60
2023-05-09T07:05:29.435Z,1.20
2023-05-09T07:10:35.286Z,1.30
2023-05-09T07:15:42.714Z,1.10
2023-05-09T07:20:48.868Z,0.90
2023-05-09T07:25:58.851Z,1.10
2023-05-09T07:31:05.974Z,1.00
2023-05-09T07:36:13.642Z,0.90
2023-05-09T07:41:18.920Z,1.10
2023-05-09T07:46:24.326Z,0.80
2023-05-09T07:51:29.850Z,1.00
2023-05-09T07:56:35.232Z,1.00
2023-05-09T08:01:40.762Z,0.90
2023-05-09T08:06:46.360Z,0.90
2023-05-09T08:11:52.185Z,0.90
2023-05-09T08:16:57.889Z,1.00
2023-05-09T08:22:03.375Z,1.10
2023-05-09T08:27:08.685Z,1.20
2023-05-09T08:32:14.404Z,1.10
2023-05-09T08:37:19.781Z,1.10
2023-05-09T08:42:27.153Z,1.20
2023-05-09T08:47:36.998Z,0.90
2023-05-09T08:52:42.820Z,1.10
2023-05-09T08:57:48.956Z,1.10
2023-05-09T09:02:56.565Z,1.10
2023-05-09T09:08:03.876Z,1.10
2023-05-09T09:13:10.071Z,1.30
2023-05-09T09:18:20.990Z,1.30
2023-05-09T09:23:28.934Z,1.50
2023-05-09T09:28:35.017Z,1.00
2023-05-09T09:33:40.479Z,1.10
2023-05-09T09:38:46.053Z,1.10
2023-05-09T09:43:51.602Z,1.30
2023-05-09T09:48:59.097Z,1.20
2023-05-09T09:54:06.710Z,1.10
2023-05-09T09:59:14.275Z,1.20
2023-05-09T10:04:19.798Z,1.10
2023-05-09T10:09:26.793Z,1.30
2023-05-09T10:14:35.289Z,1.40
2023-05-09T10:19:45.907Z,1.50
2023-05-09T10:25:03.767Z,1.20
2023-05-09T10:30:13.738Z,1.30
2023-05-09T10:35:20.862Z,1.10
2023-05-09T10:40:27.859Z,1.20
2023-05-09T10:45:34.115Z,1.30
2023-05-09T10:50:40.673Z,1.20
2023-05-09T10:55:56.428Z,0.80
2023-05-09T11:01:03.709Z,1.10
2023-05-09T11:06:09.361Z,1.30
2023-05-09T11:11:27.047Z,1.30
2023-05-09T11:16:52.414Z,1.20
2023-05-09T11:22:13.639Z,1.10
2023-05-09T11:27:22.792Z,1.20
2023-05-09T11:32:44.477Z,1.40
2023-05-09T11:37:58.497Z,1.40
2023-05-09T11:43:22.794Z,1.10
2023-05-09T11:48:40.372Z,1.10
2023-05-09T11:53:49.710Z,1.20
2023-05-09T11:58:55.407Z,1.30
2023-05-09T12:04:02.220Z,1.50
2023-05-09T12:09:09.152Z,2.50
2023-05-09T12:14:29.097Z,1.40
2023-05-09T12:19:34.596Z,1.20
2023-05-09T12:24:40.007Z,1.50
2023-05-09T12:29:47.593Z,1.20
2023-05-09T12:34:54.235Z,1.50
2023-05-09T12:40:11.252Z,1.30
2023-05-09T12:45:17.316Z,1.40
2023-05-09T12:50:31.090Z,1.70
2023-05-09T12:55:41.934Z,1.40
2023-05-09T13:00:47.571Z,1.60
2023-05-09T13:06:05.367Z,1.40
2023-05-09T13:11:16.754Z,1.70
2023-05-09T13:16:22.866Z,1.50
2023-05-09T13:21:31.565Z,1.40
2023-05-09T13:26:36.987Z,1.60
2023-05-09T13:31:42.470Z,1.40
2023-05-09T13:36:47.836Z,1.50
2023-05-09T13:41:53.363Z,1.50
2023-05-09T13:47:00.340Z,1.60
2023-05-09T13:52:06.757Z,1.40
2023-05-09T13:57:12.634Z,1.90
2023-05-09T14:02:18.825Z,1.50
2023-05-09T14:07:24.490Z,1.50
2023-05-09T14:12:30.282Z,1.40
2023-05-09T14:17:35.654Z,1.60
2023-05-09T14:22:41.673Z,1.80
2023-05-09T14:27:47.577Z,1.70
2023-05-09T14:32:52.914Z,1.60
2023-05-09T14:37:58.503Z,1.60
2023-05-09T14:43:03.828Z,1.60
2023-05-09T14:48:10.474Z,1.50
2023-05-09T14:53:17.055Z,1.70
2023-05-09T14:58:23.794Z,1.50
2023-05-09T15:03:29.120Z,1.60
2023-05-09T15:08:35.639Z,1.70
2023-05-09T15:13:41.042Z,2.20
2023-05-09T15:18:47.641Z,1.50
2023-05-09T15:23:53.266Z,1.70
2023-05-09T15:28:58.948Z,1.90
2023-05-09T15:34:06.712Z,1.90
2023-05-09T15:39:12.545Z,2.10
2023-05-09T15:44:18.101Z,2.00
2023-05-09T15:49:23.438Z,1.90
2023-05-09T15:54:31.841Z,1.80
2023-05-09T15:59:37.234Z,1.70
2023-05-09T16:04:44.069Z,2.00
2023-05-09T16:09:50.044Z,1.90
2023-05-09T16:14:55.464Z,1.90
2023-05-09T16:20:04.132Z,2.30
2023-05-09T16:25:14.654Z,1.60
2023-05-09T16:30:20.156Z,1.70
2023-05-09T16:35:25.962Z,2.20
2023-05-09T16:40:32.137Z,2.00
2023-05-09T16:45:37.646Z,1.90
2023-05-09T16:50:44.280Z,2.00
2023-05-09T16:55:49.815Z,2.00
2023-05-09T17:00:55.428Z,2.30
2023-05-09T17:06:01.170Z,2.40
2023-05-09T17:11:06.832Z,2.20
2023-05-09T17:16:12.629Z,2.00
2023-05-09T17:21:20.206Z,2.00
2023-05-09T17:26:26.023Z,2.30
2023-05-09T17:31:32.160Z,2.20
2023-05-09T17:36:40.074Z,2.60
2023-05-09T17:41:46.376Z,2.50
2023-05-09T17:46:51.834Z,2.20
2023-05-09T17:51:57.392Z,2.00
2023-05-09T17:57:03.233Z,2.30
2023-05-09T18:02:08.905Z,2.80
2023-05-09T18:07:14.531Z,2.50
2023-05-09T18:12:20.431Z,2.60
2023-05-09T18:17:25.891Z,2.80
2023-05-09T18:22:33.179Z,2.40
2023-05-09T18:27:39.283Z,3.10
2023-05-09T18:32:44.747Z,3.40
2023-05-09T18:37:50.647Z,4.50
2023-05-09T18:42:56.283Z,5.10
2023-05-09T18:48:02.809Z,5.20
2023-05-09T18:53:08.265Z,5.00
2023-05-09T18:58:13.769Z,5.60
2023-05-09T19:03:19.187Z,5.80
2023-05-09T19:08:26.288Z,5.80
2023-05-09T19:13:37.033Z,5.60
2023-05-09T19:18:42.595Z,5.80
2023-05-09T19:23:49.217Z,5.70
2023-05-09T19:28:55.225Z,6.50
2023-05-09T19:34:01.235Z,5.50
2023-05-09T19:39:09.267Z,6.00
2023-05-09T19:44:15.553Z,5.30
2023-05-09T19:49:20.920Z,5.70
2023-05-09T19:54:27.251Z,5.90
2023-05-09T19:59:32.619Z,6.70
2023-05-09T20:04:39.070Z,8.10
2023-05-09T20:09:44.475Z,7.60
2023-05-09T20:14:49.872Z,8.40
2023-05-09T20:19:57.707Z,8.40
2023-05-09T20:25:11.342Z,9.00
2023-05-09T20:30:34.460Z,8.80
2023-05-09T20:36:06.621Z,8.90
2023-05-09T20:41:12.696Z,10.50
2023-05-09T20:47:24.376Z,9.90
2023-05-09T20:53:17.439Z,9.80
2023-05-09T20:58:28.178Z,7.70
2023-05-09T21:03:37.589Z,7.70
2023-05-09T21:08:44.365Z,8.00
2023-05-09T21:13:49.903Z,7.80
2023-05-09T21:18:55.432Z,8.00
2023-05-09T21:24:03.308Z,7.10
2023-05-09T21:29:09.288Z,7.30
2023-05-09T21:34:14.627Z,7.00
2023-05-09T21:39:19.987Z,7.20
2023-05-09T21:44:25.574Z,7.40
2023-05-09T21:49:31.341Z,7.60
2023-05-09T21:54:36.802Z,7.80
2023-05-09T21:59:42.572Z,7.50
2023-05-09T22:04:48.098Z,7.40
2023-05-09T22:09:54.181Z,7.60
2023-05-09T22:14:59.795Z,7.50
2023-05-09T22:20:06.699Z,8.70
2023-05-09T22:25:12.249Z,8.40
2023-05-09T22:30:17.926Z,8.80
2023-05-09T22:35:23.588Z,8.80
2023-05-09T22:40:29.264Z,10.40
2023-05-09T22:45:34.774Z,9.30
2023-05-09T22:50:40.586Z,9.20
2023-05-09T22:55:46.175Z,9.10
2023-05-09T23:00:51.661Z,9.50
2023-05-09T23:05:57.262Z,9.40
2023-05-09T23:11:02.973Z,9.50
2023-05-09T23:16:08.907Z,9.50
2023-05-09T23:21:14.605Z,9.80
2023-05-09T23:26:20.836Z,9.20
2023-05-09T23:31:26.485Z,9.90
2023-05-09T23:36:32.849Z,9.80
2023-05-09T23:41:38.377Z,9.60
2023-05-09T23:46:43.907Z,8.50
2023-05-09T23:51:49.298Z,9.50
2023-05-09T23:56:57.228Z,9.00
